createdAt,value
2018-09-12T00:01:33.809Z,2.80
2018-09-12T00:04:02.636Z,2.80
2018-09-12T00:06:31.380Z,2.60
2018-09-12T00:09:00.176Z,2.67
2018-09-12T00:11:29.002Z,2.83
2018-09-12T00:13:57.777Z,2.60
2018-09-12T00:16:26.566Z,3.10
2018-09-12T00:18:55.373Z,3.93
2018-09-12T00:21:24.208Z,2.60
2018-09-12T00:23:52.962Z,3.40
2018-09-12T00:26:21.710Z,3.10
2018-09-12T00:28:50.487Z,3.40
2018-09-12T00:31:19.188Z,3.40
2018-09-12T00:33:47.814Z,3.27
2018-09-12T00:36:16.324Z,3.27
2018-09-12T00:38:44.835Z,3.30
2018-09-12T00:41:13.331Z,3.13
2018-09-12T00:43:41.909Z,3.17
2018-09-12T00:46:10.392Z,3.30
2018-09-12T00:48:38.943Z,2.77
2018-09-12T00:51:07.433Z,2.90
2018-09-12T00:53:35.952Z,2.63
2018-09-12T00:56:04.527Z,2.70
2018-09-12T00:58:33.407Z,2.57
2018-09-12T01:01:01.884Z,3.10
2018-09-12T01:03:30.429Z,2.70
2018-09-12T01:05:58.967Z,3.20
2018-09-12T01:08:27.511Z,3.07
2018-09-12T01:10:56.030Z,2.63
2018-09-12T01:13:24.593Z,2.90
2018-09-12T01:15:53.189Z,3.03
2018-09-12T01:18:21.756Z,2.80
2018-09-12T01:20:51.430Z,2.77
2018-09-12T01:23:20.684Z,2.90
2018-09-12T01:25:49.287Z,2.90
2018-09-12T01:28:17.784Z,3.50
2018-09-12T01:30:46.329Z,2.87
2018-09-12T01:33:14.824Z,2.90
2018-09-12T01:35:43.356Z,3.60
2018-09-12T01:38:11.851Z,3.20
2018-09-12T01:40:40.432Z,3.20
2018-09-12T01:43:08.952Z,3.10
2018-09-12T01:45:37.521Z,3.00
2018-09-12T01:48:06.061Z,2.70
2018-09-12T01:50:34.616Z,3.30
2018-09-12T01:53:03.137Z,2.63
2018-09-12T01:55:31.713Z,2.63
2018-09-12T01:58:00.232Z,3.20
2018-09-12T02:00:34.224Z,3.07
2018-09-12T02:03:02.772Z,3.63
2018-09-12T02:05:31.345Z,2.70
2018-09-12T02:07:59.861Z,3.30
2018-09-12T02:10:28.444Z,3.40
2018-09-12T02:12:56.965Z,3.10
2018-09-12T02:15:25.524Z,3.57
2018-09-12T02:17:54.038Z,3.23
2018-09-12T02:20:22.642Z,3.07
2018-09-12T02:22:51.157Z,3.30
2018-09-12T02:25:19.715Z,3.03
2018-09-12T02:27:48.295Z,3.13
2018-09-12T02:30:17.021Z,2.97
2018-09-12T02:32:45.566Z,2.90
2018-09-12T02:35:14.200Z,3.13
2018-09-12T02:37:42.729Z,3.67
2018-09-12T02:40:11.287Z,3.23
2018-09-12T02:42:39.863Z,3.60
2018-09-12T02:45:08.468Z,2.90
2018-09-12T02:47:38.102Z,2.97
2018-09-12T02:50:08.797Z,3.27
2018-09-12T02:52:37.744Z,2.93
2018-09-12T02:55:07.297Z,3.10
2018-09-12T02:57:35.845Z,3.10
2018-09-12T03:00:04.808Z,2.90
2018-09-12T03:02:33.374Z,3.43
2018-09-12T03:05:01.887Z,3.30
2018-09-12T03:07:30.496Z,3.20
2018-09-12T03:09:59.033Z,3.30
2018-09-12T03:12:27.597Z,3.10
2018-09-12T03:14:56.153Z,3.00
2018-09-12T03:17:24.736Z,3.00
2018-09-12T03:19:53.294Z,3.03
2018-09-12T03:22:21.872Z,3.30
2018-09-12T03:24:50.379Z,2.83
2018-09-12T03:27:18.940Z,3.17
2018-09-12T03:29:47.520Z,3.00
2018-09-12T03:32:16.123Z,3.27
2018-09-12T03:34:44.648Z,2.77
2018-09-12T03:37:13.228Z,3.60
2018-09-12T03:39:41.796Z,2.73
2018-09-12T03:42:10.456Z,2.80
2018-09-12T03:44:38.977Z,2.90
2018-09-12T03:47:07.589Z,3.53
2018-09-12T03:49:36.352Z,2.87
2018-09-12T03:52:05.148Z,3.33
2018-09-12T03:54:33.956Z,3.53
2018-09-12T03:57:02.791Z,3.93
2018-09-12T03:59:31.676Z,2.90
2018-09-12T04:02:00.516Z,3.37
2018-09-12T04:04:29.277Z,3.20
2018-09-12T04:06:58.179Z,3.17
2018-09-12T04:09:26.981Z,2.87
2018-09-12T04:11:55.877Z,3.57
2018-09-12T04:14:24.677Z,3.17
2018-09-12T04:16:53.701Z,3.10
2018-09-12T04:19:22.211Z,3.10
2018-09-12T04:21:50.802Z,3.40
2018-09-12T04:24:19.435Z,7.53
2018-09-12T04:26:47.964Z,5.37
2018-09-12T04:29:16.535Z,3.30
2018-09-12T04:31:45.173Z,3.27
2018-09-12T04:34:13.752Z,4.97
2018-09-12T04:36:42.310Z,3.93
2018-09-12T04:39:11.928Z,3.50
2018-09-12T04:41:40.527Z,2.80
2018-09-12T04:44:09.056Z,6.17
2018-09-12T04:46:37.713Z,4.47
2018-09-12T04:49:06.600Z,3.40
2018-09-12T04:51:35.177Z,3.20
2018-09-12T04:54:03.723Z,5.70
2018-09-12T04:56:32.319Z,2.93
2018-09-12T04:59:00.885Z,3.00
2018-09-12T05:01:29.498Z,2.80
2018-09-12T05:03:58.018Z,3.03
2018-09-12T05:06:26.604Z,7.93
2018-09-12T05:08:55.145Z,3.67
2018-09-12T05:11:23.732Z,3.03
2018-09-12T05:13:52.250Z,3.10
2018-09-12T05:16:23.832Z,2.63
2018-09-12T05:18:52.360Z,2.90
2018-09-12T05:21:20.968Z,3.10
2018-09-12T05:23:49.545Z,3.20
2018-09-12T05:26:18.136Z,2.90
2018-09-12T05:28:46.690Z,3.20
2018-09-12T05:31:15.249Z,3.23
2018-09-12T05:33:43.803Z,3.17
2018-09-12T05:36:12.369Z,3.03
2018-09-12T05:38:40.965Z,3.50
2018-09-12T05:41:09.504Z,3.50
2018-09-12T05:43:38.077Z,3.73
2018-09-12T05:46:06.695Z,3.23
2018-09-12T05:48:35.294Z,3.27
2018-09-12T05:51:03.845Z,2.90
2018-09-12T05:53:32.472Z,3.13
2018-09-12T05:56:00.969Z,3.00
2018-09-12T05:58:29.659Z,3.27
2018-09-12T06:00:58.988Z,3.27
2018-09-12T06:03:28.593Z,3.30
2018-09-12T06:05:57.151Z,3.27
2018-09-12T06:08:25.822Z,2.93
2018-09-12T06:10:54.357Z,3.03
2018-09-12T06:13:22.936Z,3.30
2018-09-12T06:15:51.704Z,3.63
2018-09-12T06:18:20.288Z,4.17
2018-09-12T06:20:49.229Z,3.90
2018-09-12T06:23:20.297Z,3.10
2018-09-12T06:25:48.900Z,2.97
2018-09-12T06:28:17.471Z,3.40
2018-09-12T06:30:46.084Z,3.03
2018-09-12T06:33:17.503Z,3.27
2018-09-12T06:35:46.047Z,3.10
2018-09-12T06:38:14.650Z,2.70
2018-09-12T06:40:43.175Z,3.10
2018-09-12T06:43:11.779Z,3.70
2018-09-12T06:45:40.337Z,3.13
2018-09-12T06:48:08.946Z,3.20
2018-09-12T06:50:37.480Z,3.03
2018-09-12T06:53:06.037Z,3.47
2018-09-12T06:55:34.600Z,3.13
2018-09-12T06:58:03.148Z,3.63
2018-09-12T07:00:31.813Z,3.50
2018-09-12T07:03:00.303Z,2.77
2018-09-12T07:05:28.879Z,3.20
2018-09-12T07:07:57.416Z,3.40
2018-09-12T07:10:25.967Z,3.10
2018-09-12T07:12:54.513Z,3.23
2018-09-12T07:15:23.123Z,3.20
2018-09-12T07:17:51.667Z,2.77
2018-09-12T07:20:20.254Z,3.10
2018-09-12T07:22:48.795Z,4.40
2018-09-12T07:25:17.608Z,4.30
2018-09-12T07:27:46.164Z,3.70
2018-09-12T07:30:14.728Z,3.53
2018-09-12T07:32:43.308Z,3.40
2018-09-12T07:35:11.864Z,3.13
2018-09-12T07:37:40.498Z,3.83
2018-09-12T07:40:09.292Z,3.83
2018-09-12T07:42:38.097Z,3.93
2018-09-12T07:45:06.920Z,3.47
2018-09-12T07:47:35.480Z,3.20
2018-09-12T07:50:04.048Z,3.57
2018-09-12T07:52:32.594Z,3.37
2018-09-12T07:55:01.200Z,3.43
2018-09-12T07:57:29.768Z,3.60
2018-09-12T07:59:58.319Z,3.50
2018-09-12T08:02:26.908Z,4.00
2018-09-12T08:04:55.480Z,3.60
2018-09-12T08:07:24.348Z,3.63
2018-09-12T08:09:52.883Z,4.13
2018-09-12T08:12:21.529Z,4.57
2018-09-12T08:14:50.031Z,4.50
2018-09-12T08:17:18.578Z,3.60
2018-09-12T08:19:47.208Z,3.70
2018-09-12T08:22:15.816Z,3.17
2018-09-12T08:24:44.356Z,3.13
2018-09-12T08:27:12.909Z,3.93
2018-09-12T08:29:41.429Z,3.90
2018-09-12T08:32:10.002Z,3.73
2018-09-12T08:34:38.519Z,3.43
2018-09-12T08:37:07.109Z,3.17
2018-09-12T08:39:35.656Z,3.70
2018-09-12T08:42:04.311Z,3.50
2018-09-12T08:44:32.828Z,4.00
2018-09-12T08:47:01.692Z,3.70
2018-09-12T08:49:30.544Z,4.03
2018-09-12T08:51:59.452Z,4.67
2018-09-12T08:54:28.266Z,4.40
2018-09-12T08:56:57.127Z,4.23
2018-09-12T08:59:25.953Z,4.00
2018-09-12T09:01:54.867Z,4.37
2018-09-12T09:04:23.680Z,4.23
2018-09-12T09:06:52.586Z,3.90
2018-09-12T09:09:21.377Z,3.97
2018-09-12T09:11:50.012Z,4.40
2018-09-12T09:14:18.542Z,3.80
2018-09-12T09:16:47.097Z,4.43
2018-09-12T09:19:15.635Z,4.37
2018-09-12T09:21:44.206Z,4.43
2018-09-12T09:24:12.776Z,3.67
2018-09-12T09:26:41.324Z,3.97
2018-09-12T09:29:09.889Z,4.20
2018-09-12T09:31:38.430Z,4.23
2018-09-12T09:34:07.009Z,3.80
2018-09-12T09:36:35.544Z,3.03
2018-09-12T09:39:06.335Z,3.80
2018-09-12T09:41:34.864Z,3.63
2018-09-12T09:44:03.520Z,3.70
2018-09-12T09:46:32.060Z,3.60
2018-09-12T09:49:00.636Z,4.13
2018-09-12T09:51:29.177Z,4.57
2018-09-12T09:54:04.408Z,3.67
2018-09-12T09:56:32.963Z,4.03
2018-09-12T09:59:01.550Z,4.00
2018-09-12T10:01:35.347Z,3.70
2018-09-12T10:04:09.365Z,3.23
2018-09-12T10:06:43.493Z,3.73
2018-09-12T10:09:17.423Z,4.37
2018-09-12T10:11:46.018Z,4.80
2018-09-12T10:14:14.553Z,3.77
2018-09-12T10:16:43.091Z,4.37
2018-09-12T10:19:11.648Z,3.57
2018-09-12T10:21:40.219Z,3.63
2018-09-12T10:24:08.787Z,4.10
2018-09-12T10:26:37.330Z,3.87
2018-09-12T10:29:05.893Z,3.53
2018-09-12T10:31:34.412Z,3.80
2018-09-12T10:34:02.972Z,6.87
2018-09-12T10:36:31.515Z,4.73
2018-09-12T10:39:00.143Z,5.17
2018-09-12T10:41:28.696Z,4.30
2018-09-12T10:43:57.337Z,3.83
2018-09-12T10:46:25.873Z,5.30
2018-09-12T10:48:54.504Z,4.40
2018-09-12T10:51:23.056Z,5.30
2018-09-12T10:53:51.611Z,5.63
2018-09-12T10:56:20.132Z,3.43
2018-09-12T10:58:48.977Z,3.80
2018-09-12T11:01:17.603Z,3.20
2018-09-12T11:03:46.655Z,3.27
2018-09-12T11:06:15.207Z,3.10
2018-09-12T11:08:43.754Z,3.20
2018-09-12T11:11:12.295Z,2.90
2018-09-12T11:13:40.892Z,3.00
2018-09-12T11:16:09.424Z,2.30
2018-09-12T11:18:37.984Z,2.50
2018-09-12T11:21:06.372Z,1.77
2018-09-12T11:23:34.904Z,1.67
2018-09-12T11:26:03.476Z,1.87
2018-09-12T11:28:32.004Z,1.50
2018-09-12T11:31:00.565Z,1.63
2018-09-12T11:33:29.112Z,1.70
2018-09-12T11:35:57.677Z,1.90
2018-09-12T11:38:26.204Z,1.60
2018-09-12T11:40:54.775Z,1.50
2018-09-12T11:43:23.293Z,1.90
2018-09-12T11:45:51.856Z,2.00
2018-09-12T11:48:20.384Z,1.70
2018-09-12T11:50:48.944Z,1.93
2018-09-12T11:53:17.489Z,2.00
2018-09-12T11:55:46.036Z,2.07
2018-09-12T11:58:14.548Z,1.70
2018-09-12T12:00:43.100Z,1.97
2018-09-12T12:03:11.622Z,1.93
2018-09-12T12:05:40.183Z,2.00
2018-09-12T12:08:08.725Z,2.10
2018-09-12T12:10:37.288Z,2.03
2018-09-12T12:13:05.892Z,1.90
2018-09-12T12:15:34.505Z,2.40
2018-09-12T12:18:03.052Z,2.60
2018-09-12T12:20:31.658Z,2.10
2018-09-12T12:23:00.280Z,2.10
2018-09-12T12:25:28.884Z,2.00
2018-09-12T12:27:57.414Z,2.40
2018-09-12T12:30:26.019Z,2.07
2018-09-12T12:32:54.574Z,2.17
2018-09-12T12:35:23.481Z,2.40
2018-09-12T12:37:52.412Z,2.27
2018-09-12T12:40:21.225Z,1.97
2018-09-12T12:42:49.757Z,1.87
2018-09-12T12:45:18.467Z,2.03
2018-09-12T12:47:47.035Z,1.83
2018-09-12T12:50:15.849Z,2.10
2018-09-12T12:52:44.625Z,1.93
2018-09-12T12:55:13.446Z,2.10
2018-09-12T12:57:42.192Z,1.70
2018-09-12T13:00:10.998Z,1.77
2018-09-12T13:02:39.777Z,1.80
2018-09-12T13:05:08.677Z,1.57
2018-09-12T13:07:37.393Z,1.87
2018-09-12T13:10:06.228Z,1.63
2018-09-12T13:12:35.057Z,1.40
2018-09-12T13:15:03.776Z,1.67
2018-09-12T13:17:32.552Z,1.50
2018-09-12T13:20:01.321Z,2.07
2018-09-12T13:22:30.208Z,1.53
2018-09-12T13:24:59.019Z,2.10
2018-09-12T13:27:27.992Z,1.90
2018-09-12T13:29:56.689Z,1.93
2018-09-12T13:32:25.584Z,2.00
2018-09-12T13:34:54.351Z,1.90
2018-09-12T13:37:23.240Z,1.77
2018-09-12T13:39:51.884Z,2.00
2018-09-12T13:42:20.461Z,1.90
2018-09-12T13:44:49.419Z,1.93
2018-09-12T13:47:18.000Z,1.70
2018-09-12T13:49:46.521Z,1.73
2018-09-12T13:52:15.069Z,1.80
2018-09-12T13:54:43.600Z,1.80
2018-09-12T13:57:12.160Z,1.80
2018-09-12T13:59:40.729Z,1.80
2018-09-12T14:02:09.276Z,1.80
2018-09-12T14:04:37.808Z,1.90
2018-09-12T14:07:06.608Z,1.80
2018-09-12T14:09:35.219Z,1.80
2018-09-12T14:12:04.665Z,1.90
2018-09-12T14:14:33.214Z,2.07
2018-09-12T14:17:01.759Z,1.57
2018-09-12T14:19:30.370Z,1.93
2018-09-12T14:21:59.125Z,2.00
2018-09-12T14:24:27.657Z,2.03
2018-09-12T14:26:56.248Z,1.80
2018-09-12T14:29:24.787Z,1.87
2018-09-12T14:31:53.331Z,1.87
2018-09-12T14:34:21.852Z,2.17
2018-09-12T14:36:50.701Z,1.80
2018-09-12T14:39:19.271Z,1.87
2018-09-12T14:41:47.816Z,1.93
2018-09-12T14:44:16.352Z,2.00
2018-09-12T14:46:44.904Z,1.90
2018-09-12T14:49:13.432Z,1.80
2018-09-12T14:51:42.007Z,2.17
2018-09-12T14:54:10.549Z,1.63
2018-09-12T14:56:39.129Z,2.00
2018-09-12T14:59:07.660Z,1.83
2018-09-12T15:01:36.203Z,1.80
2018-09-12T15:04:04.803Z,1.53
2018-09-12T15:06:33.334Z,1.70
2018-09-12T15:09:01.892Z,1.70
2018-09-12T15:11:30.423Z,1.80
2018-09-12T15:13:58.968Z,1.87
2018-09-12T15:16:27.489Z,1.93
2018-09-12T15:18:56.033Z,1.50
2018-09-12T15:21:24.596Z,1.60
2018-09-12T15:23:53.149Z,2.10
2018-09-12T15:26:21.669Z,1.80
2018-09-12T15:28:50.242Z,1.77
2018-09-12T15:31:18.764Z,1.70
2018-09-12T15:33:47.309Z,1.90
2018-09-12T15:36:15.824Z,1.83
2018-09-12T15:38:44.388Z,1.90
2018-09-12T15:41:12.945Z,1.80
2018-09-12T15:43:41.448Z,1.70
2018-09-12T15:46:09.965Z,2.00
2018-09-12T15:48:38.517Z,1.63
2018-09-12T15:51:07.048Z,1.60
2018-09-12T15:53:35.632Z,1.70
2018-09-12T15:56:04.183Z,1.73
2018-09-12T15:58:32.735Z,1.60
2018-09-12T16:01:01.385Z,2.00
2018-09-12T16:03:29.952Z,1.80
2018-09-12T16:05:58.520Z,1.73
2018-09-12T16:08:27.077Z,1.57
2018-09-12T16:10:55.656Z,1.80
2018-09-12T16:13:24.255Z,1.70
2018-09-12T16:15:52.804Z,1.40
2018-09-12T16:18:21.400Z,1.53
2018-09-12T16:20:50.027Z,1.90
2018-09-12T16:23:18.555Z,1.50
2018-09-12T16:25:47.164Z,1.67
2018-09-12T16:28:15.713Z,1.80
2018-09-12T16:30:44.276Z,1.63
2018-09-12T16:33:12.884Z,1.60
2018-09-12T16:35:41.444Z,1.60
2018-09-12T16:38:10.017Z,1.50
2018-09-12T16:40:38.567Z,1.73
2018-09-12T16:43:07.205Z,2.00
2018-09-12T16:45:35.756Z,1.80
2018-09-12T16:48:04.332Z,1.50
2018-09-12T16:50:32.860Z,2.00
2018-09-12T16:53:01.426Z,3.40
2018-09-12T16:55:29.965Z,3.07
2018-09-12T16:57:58.540Z,2.53
2018-09-12T17:00:27.065Z,2.20
2018-09-12T17:02:55.699Z,2.33
2018-09-12T17:05:24.249Z,1.80
2018-09-12T17:07:52.782Z,2.20
2018-09-12T17:10:22.166Z,1.60
2018-09-12T17:12:50.719Z,1.93
2018-09-12T17:15:19.272Z,1.70
2018-09-12T17:17:47.859Z,1.93
2018-09-12T17:20:16.473Z,2.20
2018-09-12T17:22:45.028Z,2.20
2018-09-12T17:25:13.591Z,1.80
2018-09-12T17:27:42.152Z,1.93
2018-09-12T17:30:10.709Z,1.93
2018-09-12T17:32:39.265Z,1.80
2018-09-12T17:35:07.820Z,2.10
2018-09-12T17:37:36.401Z,2.97
2018-09-12T17:40:04.989Z,2.03
2018-09-12T17:42:33.528Z,2.63
2018-09-12T17:45:02.085Z,2.30
2018-09-12T17:47:30.635Z,2.27
2018-09-12T17:49:59.180Z,2.17
2018-09-12T17:52:27.707Z,2.20
2018-09-12T17:54:56.269Z,2.30
2018-09-12T17:57:25.096Z,2.03
2018-09-12T17:59:53.975Z,2.67
2018-09-12T18:02:22.499Z,2.40
2018-09-12T18:04:51.044Z,2.17
2018-09-12T18:07:19.684Z,3.73
2018-09-12T18:09:48.232Z,4.43
2018-09-12T18:12:16.756Z,2.80
2018-09-12T18:14:45.293Z,1.97
2018-09-12T18:17:13.824Z,2.03
2018-09-12T18:19:42.382Z,1.93
2018-09-12T18:22:10.956Z,2.00
2018-09-12T18:24:39.523Z,2.10
2018-09-12T18:27:08.168Z,2.40
2018-09-12T18:29:36.787Z,2.00
2018-09-12T18:32:05.334Z,2.07
2018-09-12T18:34:33.892Z,1.87
2018-09-12T18:37:02.427Z,1.90
2018-09-12T18:39:30.974Z,1.63
2018-09-12T18:41:59.863Z,1.90
2018-09-12T18:44:28.433Z,1.93
2018-09-12T18:46:56.972Z,1.60
2018-09-12T18:49:25.511Z,2.00
2018-09-12T18:51:54.065Z,6.13
2018-09-12T18:54:22.636Z,3.40
2018-09-12T18:56:51.173Z,1.67
2018-09-12T18:59:19.735Z,1.93
2018-09-12T19:01:48.250Z,2.40
2018-09-12T19:04:16.830Z,2.73
2018-09-12T19:06:45.379Z,2.30
2018-09-12T19:09:13.937Z,1.97
2018-09-12T19:11:42.484Z,2.30
2018-09-12T19:14:11.020Z,1.90
2018-09-12T19:16:39.560Z,2.10
2018-09-12T19:19:08.110Z,1.87
2018-09-12T19:21:36.667Z,2.30
2018-09-12T19:24:05.325Z,1.97
2018-09-12T19:26:34.185Z,1.90
2018-09-12T19:29:02.921Z,1.90
2018-09-12T19:31:31.815Z,1.47
2018-09-12T19:34:00.773Z,1.60
2018-09-12T19:36:29.526Z,1.70
2018-09-12T19:38:58.424Z,1.87
2018-09-12T19:41:27.205Z,2.00
2018-09-12T19:43:56.099Z,2.00
2018-09-12T19:46:24.925Z,1.60
2018-09-12T19:48:53.708Z,1.40
2018-09-12T19:51:22.517Z,1.53
2018-09-12T19:53:52.157Z,2.10
2018-09-12T19:56:20.955Z,6.03
2018-09-12T19:58:50.289Z,2.30
2018-09-12T20:01:19.180Z,1.50
2018-09-12T20:03:47.796Z,1.67
2018-09-12T20:06:16.448Z,1.37
2018-09-12T20:08:45.060Z,1.60
2018-09-12T20:11:13.636Z,1.87
2018-09-12T20:13:42.200Z,1.93
2018-09-12T20:16:11.206Z,1.60
2018-09-12T20:18:39.704Z,1.90
2018-09-12T20:21:08.315Z,1.83
2018-09-12T20:23:36.916Z,1.90
2018-09-12T20:26:05.539Z,1.70
2018-09-12T20:28:39.207Z,1.80
2018-09-12T20:31:08.334Z,2.07
2018-09-12T20:33:36.931Z,1.60
2018-09-12T20:36:06.328Z,1.70
2018-09-12T20:38:35.144Z,1.90
2018-09-12T20:41:04.315Z,1.77
2018-09-12T20:43:33.357Z,1.70
2018-09-12T20:46:02.262Z,1.90
2018-09-12T20:48:31.167Z,1.53
2018-09-12T20:50:59.932Z,1.60
2018-09-12T20:53:28.773Z,1.80
2018-09-12T20:55:57.621Z,2.10
2018-09-12T20:58:26.443Z,2.03
2018-09-12T21:00:55.268Z,1.63
2018-09-12T21:03:24.760Z,1.83
2018-09-12T21:05:53.580Z,1.70
2018-09-12T21:08:22.363Z,1.80
2018-09-12T21:10:51.320Z,1.87
2018-09-12T21:13:20.070Z,1.63
2018-09-12T21:15:48.951Z,1.87
2018-09-12T21:18:17.917Z,2.37
2018-09-12T21:20:46.756Z,2.10
2018-09-12T21:23:15.421Z,2.07
2018-09-12T21:25:43.966Z,1.90
2018-09-12T21:28:12.488Z,2.10
2018-09-12T21:30:41.041Z,1.90
2018-09-12T21:33:09.617Z,2.40
2018-09-12T21:35:38.232Z,2.20
2018-09-12T21:38:06.852Z,2.33
2018-09-12T21:40:35.530Z,2.03
2018-09-12T21:43:04.100Z,2.10
2018-09-12T21:45:32.652Z,2.60
2018-09-12T21:48:01.214Z,2.17
2018-09-12T21:50:29.772Z,2.40
2018-09-12T21:52:58.328Z,2.17
2018-09-12T21:55:26.843Z,2.53
2018-09-12T21:57:55.384Z,3.47
2018-09-12T22:00:23.924Z,3.20
2018-09-12T22:02:52.503Z,3.33
2018-09-12T22:05:21.012Z,3.57
2018-09-12T22:07:49.621Z,3.97
2018-09-12T22:10:18.134Z,3.33
2018-09-12T22:12:46.663Z,3.40
2018-09-12T22:15:15.193Z,2.93
2018-09-12T22:17:43.733Z,3.03
2018-09-12T22:20:12.284Z,2.87
2018-09-12T22:22:40.865Z,3.40
2018-09-12T22:25:09.467Z,4.00
2018-09-12T22:27:38.016Z,4.07
2018-09-12T22:30:07.793Z,3.90
2018-09-12T22:32:36.551Z,3.77
2018-09-12T22:35:05.374Z,3.70
2018-09-12T22:37:34.169Z,3.60
2018-09-12T22:40:02.991Z,3.80
2018-09-12T22:42:31.845Z,4.43
2018-09-12T22:45:00.656Z,4.70
2018-09-12T22:47:29.440Z,4.47
2018-09-12T22:49:58.220Z,4.87
2018-09-12T22:52:27.058Z,4.87
2018-09-12T22:54:55.816Z,4.13
2018-09-12T22:57:24.701Z,4.30
2018-09-12T22:59:53.459Z,5.00
2018-09-12T23:02:22.284Z,4.67
2018-09-12T23:04:51.062Z,4.60
2018-09-12T23:07:19.860Z,5.40
2018-09-12T23:09:48.644Z,4.97
2018-09-12T23:12:17.505Z,4.87
2018-09-12T23:14:46.298Z,4.93
2018-09-12T23:17:15.113Z,4.93
2018-09-12T23:19:43.981Z,4.37
2018-09-12T23:22:12.748Z,4.43
2018-09-12T23:24:41.539Z,4.50
2018-09-12T23:27:10.370Z,5.60
2018-09-12T23:29:39.140Z,4.87
2018-09-12T23:32:07.981Z,4.93
2018-09-12T23:34:36.764Z,5.00
2018-09-12T23:37:05.728Z,5.50
2018-09-12T23:39:34.603Z,5.53
2018-09-12T23:42:03.510Z,5.40
2018-09-12T23:44:32.258Z,5.13
2018-09-12T23:47:01.024Z,5.60
2018-09-12T23:49:29.895Z,5.43
2018-09-12T23:51:58.761Z,5.57
2018-09-12T23:54:27.669Z,5.27
2018-09-12T23:56:56.425Z,5.37
2018-09-12T23:59:25.300Z,6.00
